Time;durP1;ratioP1;P1;durP2;ratioP2;P2;SDS_P1;SDS_P2;PMS_P1;PMS_P2;Temp;Humidity;BMP_temperature;BMP_pressure;BME280_temperature;BME280_humidity;BME280_pressure;Samples;Min_cycle;Max_cycle;Signal;HPM_P1;HPM_P2
2023/11/22 00:01:22;;;;;;;1.87;1.77;;;11.30;43.70;;;;;;10276911;28;20291;-76
2023/11/22 00:06:25;;;;;;;1.70;1.60;;;11.20;43.10;;;;;;10277494;28;20240;-76
2023/11/22 00:11:29;;;;;;;1.70;1.60;;;11.10;43.10;;;;;;10265860;28;20334;-77
2023/11/22 00:16:37;;;;;;;1.87;1.70;;;11.00;43.20;;;;;;10273410;28;20235;-76
2023/11/22 00:21:40;;;;;;;2.33;2.17;;;10.90;43.20;;;;;;10273601;28;20776;-76
2023/11/22 00:26:43;;;;;;;1.93;1.80;;;10.80;43.10;;;;;;10281353;28;20227;-76
2023/11/22 00:31:47;;;;;;;2.30;2.13;;;10.70;42.90;;;;;;10287482;28;20601;-76
2023/11/22 00:36:51;;;;;;;3.67;2.17;;;10.60;43.10;;;;;;10285569;28;20278;-76
2023/11/22 00:41:55;;;;;;;3.70;2.13;;;10.50;43.20;;;;;;10290342;28;20233;-76
2023/11/22 00:47:00;;;;;;;2.20;2.10;;;10.30;42.90;;;;;;10279714;28;21021;-76
2023/11/22 00:52:03;;;;;;;2.27;2.13;;;10.20;42.80;;;;;;10286516;28;20646;-75
2023/11/22 00:57:07;;;;;;;2.40;2.30;;;10.10;42.90;;;;;;10289521;28;20694;-76
2023/11/22 01:02:12;;;;;;;2.70;2.50;;;10.00;42.90;;;;;;10291679;28;20515;-75
2023/11/22 01:07:15;;;;;;;2.83;2.63;;;9.90;43.70;;;;;;10295053;28;20231;-76
2023/11/22 01:12:19;;;;;;;3.17;2.97;;;9.80;43.80;;;;;;10296372;28;20323;-74
2023/11/22 01:17:24;;;;;;;3.40;3.10;;;9.70;43.90;;;;;;10296130;28;20232;-77
2023/11/22 01:22:28;;;;;;;3.60;3.30;;;9.70;44.00;;;;;;10295573;28;20235;-74
2023/11/22 01:27:31;;;;;;;3.27;3.07;;;9.60;43.90;;;;;;10296266;28;20318;-75
2023/11/22 01:32:36;;;;;;;3.43;3.23;;;9.60;44.10;;;;;;10295850;28;20240;-74
2023/11/22 01:37:39;;;;;;;5.17;3.80;;;9.60;44.10;;;;;;10290299;28;20309;-74
2023/11/22 01:42:42;;;;;;;4.53;4.13;;;9.60;44.20;;;;;;10285999;28;20244;-73
2023/11/22 01:47:47;;;;;;;4.17;3.87;;;9.60;44.10;;;;;;10280538;28;20302;-75
2023/11/22 01:52:51;;;;;;;4.10;3.80;;;9.60;44.00;;;;;;10281067;28;20282;-74
2023/11/22 01:57:54;;;;;;;4.33;3.93;;;9.50;44.00;;;;;;10290828;28;20235;-77
2023/11/22 02:03:00;;;;;;;4.40;4.10;;;9.50;44.10;;;;;;10289191;28;20658;-75
2023/11/22 02:08:03;;;;;;;2.60;2.40;;;9.50;44.00;;;;;;10279154;28;20662;-74
2023/11/22 02:13:07;;;;;;;2.30;2.20;;;9.40;42.80;;;;;;10273592;28;20638;-74
2023/11/22 02:18:12;;;;;;;2.50;2.30;;;9.20;42.70;;;;;;10276355;28;20666;-75
2023/11/22 02:23:18;;;;;;;2.30;2.10;;;9.10;42.80;;;;;;10274611;28;20228;-75
2023/11/22 02:28:21;;;;;;;2.13;2.03;;;8.90;42.70;;;;;;10280825;28;20232;-74
2023/11/22 02:33:25;;;;;;;2.20;2.10;;;8.80;42.90;;;;;;10278035;28;20236;-75
2023/11/22 02:38:30;;;;;;;2.37;2.27;;;8.80;43.10;;;;;;10275067;28;20242;-75
2023/11/22 02:43:33;;;;;;;2.33;2.23;;;8.70;42.90;;;;;;10274059;28;20310;-75
2023/11/22 02:48:37;;;;;;;2.97;2.40;;;8.60;43.40;;;;;;10263912;28;20243;-75
2023/11/22 02:53:43;;;;;;;3.00;2.47;;;8.60;43.60;;;;;;10276084;28;20247;-75
2023/11/22 02:58:46;;;;;;;2.93;2.73;;;8.60;43.80;;;;;;10278250;28;20263;-74
2023/11/22 03:03:50;;;;;;;3.10;2.90;;;8.60;43.70;;;;;;10280468;28;20785;-75
2023/11/22 03:08:54;;;;;;;2.90;2.70;;;8.60;43.80;;;;;;10285354;28;20232;-74
2023/11/22 03:13:58;;;;;;;3.20;3.00;;;8.70;43.80;;;;;;10283956;28;20588;-74
2023/11/22 03:19:02;;;;;;;3.40;3.10;;;8.70;43.70;;;;;;10278051;28;20291;-74
2023/11/22 03:24:08;;;;;;;3.60;2.90;;;8.70;43.70;;;;;;10271319;28;20239;-75
2023/11/22 03:29:11;;;;;;;3.07;2.80;;;8.70;43.80;;;;;;10268696;28;20315;-76
2023/11/22 03:34:15;;;;;;;3.30;2.47;;;8.70;43.80;;;;;;10274566;28;20239;-76
2023/11/22 03:39:19;;;;;;;3.10;2.50;;;8.80;43.70;;;;;;10275284;28;20303;-76
2023/11/22 03:44:23;;;;;;;2.10;2.00;;;8.90;43.80;;;;;;10273474;28;20237;-76
2023/11/22 03:49:26;;;;;;;2.27;2.10;;;8.80;43.70;;;;;;10265750;28;20244;-73
2023/11/22 03:54:32;;;;;;;2.60;2.40;;;8.70;43.20;;;;;;10271644;28;20235;-73
2023/11/22 03:59:36;;;;;;;2.27;2.17;;;8.70;43.00;;;;;;10266751;28;20327;-73
2023/11/22 04:04:40;;;;;;;2.23;2.13;;;8.60;43.10;;;;;;10266398;28;20238;-73
2023/11/22 04:09:45;;;;;;;2.20;2.10;;;8.60;43.00;;;;;;10263539;28;20232;-73
2023/11/22 04:14:48;;;;;;;2.33;2.20;;;8.50;43.00;;;;;;10267956;28;20784;-73
2023/11/22 04:19:52;;;;;;;2.40;2.20;;;8.40;43.00;;;;;;10261934;28;21027;-73
2023/11/22 04:24:57;;;;;;;2.00;1.90;;;8.30;42.90;;;;;;10268298;28;20311;-73
2023/11/22 04:30:01;;;;;;;2.00;1.90;;;8.20;42.90;;;;;;10266011;28;20266;-73
2023/11/22 04:35:05;;;;;;;2.10;2.00;;;8.20;43.00;;;;;;10269123;28;20255;-73
2023/11/22 04:40:11;;;;;;;2.20;1.93;;;8.10;42.90;;;;;;10265849;28;20232;-73
2023/11/22 04:45:14;;;;;;;2.00;1.90;;;8.10;42.80;;;;;;10267054;28;20304;-73
2023/11/22 04:50:18;;;;;;;1.90;1.80;;;8.00;43.10;;;;;;10267655;28;20236;-73
2023/11/22 04:55:23;;;;;;;2.50;2.40;;;8.00;43.20;;;;;;10268181;28;20239;-73
2023/11/22 05:00:26;;;;;;;4.27;3.50;;;8.00;43.10;;;;;;10267972;28;20238;-73
2023/11/22 05:05:30;;;;;;;2.30;2.20;;;8.00;43.10;;;;;;10261656;28;20238;-72
2023/11/22 05:10:34;;;;;;;2.60;2.40;;;8.00;43.10;;;;;;10262970;28;20255;-73
2023/11/22 05:15:38;;;;;;;2.60;2.40;;;8.00;42.90;;;;;;10271881;28;20227;-73
2023/11/22 05:20:41;;;;;;;2.57;2.37;;;7.90;42.90;;;;;;10272508;28;20395;-73
2023/11/22 05:25:46;;;;;;;2.40;2.27;;;7.90;43.10;;;;;;10270681;28;20242;-73
2023/11/22 05:30:49;;;;;;;2.90;2.70;;;7.80;43.10;;;;;;10273031;28;20237;-73
2023/11/22 05:35:52;;;;;;;2.87;2.67;;;7.80;43.20;;;;;;10273915;28;20246;-72
2023/11/22 05:40:57;;;;;;;3.20;3.00;;;7.80;43.30;;;;;;10271557;28;20269;-73
2023/11/22 05:46:00;;;;;;;3.30;3.00;;;7.70;43.20;;;;;;10270285;28;20242;-73
2023/11/22 05:51:04;;;;;;;3.30;3.03;;;7.70;43.10;;;;;;10270414;28;20283;-74
2023/11/22 05:56:09;;;;;;;3.40;3.10;;;7.60;43.00;;;;;;10264746;28;20315;-73
2023/11/22 06:01:12;;;;;;;2.80;2.60;;;7.50;42.70;;;;;;10273681;28;20240;-72
2023/11/22 06:06:17;;;;;;;2.93;2.73;;;7.40;42.70;;;;;;10273106;28;20231;-73
2023/11/22 06:11:22;;;;;;;3.07;2.47;;;7.40;43.10;;;;;;10271267;28;20230;-73
2023/11/22 06:16:25;;;;;;;2.60;2.40;;;7.40;43.00;;;;;;10266627;28;20789;-73
2023/11/22 06:21:28;;;;;;;2.50;2.30;;;7.30;42.80;;;;;;10269416;28;20243;-73
2023/11/22 06:26:33;;;;;;;2.60;2.40;;;7.30;42.90;;;;;;10272482;28;20234;-73
2023/11/22 06:31:36;;;;;;;2.87;2.67;;;7.30;42.80;;;;;;10272865;28;20236;-74
2023/11/22 06:36:39;;;;;;;2.10;2.00;;;7.40;43.00;;;;;;10272636;28;20235;-74
2023/11/22 06:41:44;;;;;;;2.70;2.50;;;7.40;42.90;;;;;;10269617;28;20228;-74
2023/11/22 06:46:47;;;;;;;2.50;2.40;;;7.40;42.70;;;;;;10271982;28;20247;-73
2023/11/22 06:51:51;;;;;;;2.40;2.20;;;7.40;43.00;;;;;;10275104;28;20706;-73
2023/11/22 06:56:56;;;;;;;2.20;2.10;;;7.40;42.50;;;;;;10268608;28;20242;-72
2023/11/22 07:01:59;;;;;;;2.07;1.97;;;7.40;42.00;;;;;;10261330;28;21268;-72
2023/11/22 07:07:04;;;;;;;2.40;2.20;;;7.30;42.30;;;;;;10262963;28;20315;-74
2023/11/22 07:12:09;;;;;;;2.20;2.10;;;7.20;42.20;;;;;;10265709;28;20346;-71
2023/11/22 07:17:12;;;;;;;2.20;2.10;;;7.20;42.20;;;;;;10258128;28;20223;-73
2023/11/22 07:22:19;;;;;;;3.20;2.30;;;7.20;42.40;;;;;;10264307;28;20235;-72
2023/11/22 07:27:25;;;;;;;2.13;2.03;;;7.10;42.10;;;;;;10266239;28;20235;-72
2023/11/22 07:32:29;;;;;;;2.20;2.10;;;7.20;42.30;;;;;;10258017;28;20246;-72
2023/11/22 07:37:33;;;;;;;2.50;2.30;;;7.10;42.30;;;;;;10258638;28;20853;-72
2023/11/22 07:42:37;;;;;;;2.07;1.97;;;7.20;42.40;;;;;;10257985;28;20239;-71
2023/11/22 07:47:41;;;;;;;2.30;2.20;;;7.20;42.60;;;;;;10258151;28;20227;-72
2023/11/22 07:52:45;;;;;;;2.47;2.27;;;7.20;42.60;;;;;;10254947;28;20224;-72
2023/11/22 07:57:50;;;;;;;2.80;2.60;;;7.20;42.50;;;;;;10256729;28;20231;-72
2023/11/22 08:02:54;;;;;;;3.40;3.10;;;7.20;42.20;;;;;;10254102;28;20320;-73
2023/11/22 08:07:58;;;;;;;3.00;2.80;;;7.10;42.20;;;;;;10258375;28;20276;-72
2023/11/22 08:13:03;;;;;;;2.97;2.77;;;7.10;42.30;;;;;;10258650;28;20234;-72
2023/11/22 08:18:06;;;;;;;3.10;2.90;;;7.10;42.30;;;;;;10253715;28;20224;-72
2023/11/22 08:23:12;;;;;;;3.40;3.10;;;7.10;42.40;;;;;;10260656;28;20236;-73
2023/11/22 08:28:17;;;;;;;3.13;2.83;;;7.10;42.30;;;;;;10252682;28;20235;-73
2023/11/22 08:33:22;;;;;;;3.13;2.93;;;7.10;42.30;;;;;;10247600;28;20722;-72
2023/11/22 08:38:26;;;;;;;3.50;3.17;;;7.10;42.60;;;;;;10249676;28;20245;-72
2023/11/22 08:43:31;;;;;;;3.50;3.20;;;7.20;42.30;;;;;;10249035;28;20258;-72
2023/11/22 08:48:36;;;;;;;3.87;3.57;;;7.10;42.00;;;;;;10257930;28;20235;-71
2023/11/22 08:53:44;;;;;;;3.20;3.00;;;7.10;42.30;;;;;;10265294;28;20232;-72
2023/11/22 08:58:49;;;;;;;3.60;3.30;;;7.10;42.30;;;;;;10260867;28;20220;-70
2023/11/22 09:03:52;;;;;;;3.80;3.50;;;7.10;42.10;;;;;;10261543;28;20322;-71
2023/11/22 09:08:56;;;;;;;3.50;3.20;;;7.20;42.40;;;;;;10269258;28;20228;-71
2023/11/22 09:14:04;;;;;;;3.57;3.27;;;7.20;42.50;;;;;;10262387;28;20227;-71
2023/11/22 09:19:07;;;;;;;3.90;3.60;;;7.20;42.50;;;;;;10267710;28;20285;-71
2023/11/22 09:24:11;;;;;;;3.27;3.07;;;7.20;42.50;;;;;;10262983;28;20224;-71
2023/11/22 09:29:15;;;;;;;4.00;3.50;;;7.20;42.50;;;;;;10260539;28;20234;-71
2023/11/22 09:34:19;;;;;;;3.80;3.50;;;7.30;42.50;;;;;;10267803;28;20313;-71
2023/11/22 09:39:24;;;;;;;3.73;3.43;;;7.30;42.30;;;;;;10268962;28;20244;-69
2023/11/22 09:44:29;;;;;;;3.27;3.03;;;7.30;42.20;;;;;;10260417;28;20718;-73
2023/11/22 09:49:34;;;;;;;3.90;3.60;;;7.30;42.20;;;;;;10264648;28;20263;-72
2023/11/22 09:54:40;;;;;;;3.80;3.50;;;7.30;42.20;;;;;;10261021;28;20254;-72
2023/11/22 09:59:45;;;;;;;3.90;3.60;;;7.30;42.10;;;;;;10262819;28;20235;-72
2023/11/22 10:04:48;;;;;;;3.63;3.33;;;7.30;42.00;;;;;;10265658;28;20828;-72
2023/11/22 10:09:52;;;;;;;3.70;3.40;;;7.30;42.10;;;;;;10261299;28;20231;-72
2023/11/22 10:15:12;;;;;;;3.90;3.60;;;7.30;42.00;;;;;;10258203;28;20235;-72
2023/11/22 10:20:15;;;;;;;3.87;3.57;;;7.40;41.60;;;;;;10254367;28;20258;-72
2023/11/22 10:25:19;;;;;;;4.20;3.80;;;7.40;42.30;;;;;;10255269;28;20756;-72
2023/11/22 10:30:24;;;;;;;3.53;3.30;;;7.40;42.20;;;;;;10262072;28;20243;-72
2023/11/22 10:35:27;;;;;;;5.27;4.87;;;7.40;42.20;;;;;;10262915;28;20623;-72
2023/11/22 10:40:30;;;;;;;4.30;4.00;;;7.50;42.40;;;;;;10260506;28;20321;-72
2023/11/22 10:45:37;;;;;;;3.80;3.50;;;7.50;42.30;;;;;;10261166;28;21072;-72
2023/11/22 10:50:40;;;;;;;4.20;3.90;;;7.50;42.10;;;;;;10259981;28;20327;-71
2023/11/22 10:55:46;;;;;;;4.00;3.70;;;7.60;42.20;;;;;;10260947;28;20230;-71
2023/11/22 11:00:51;;;;;;;4.00;3.70;;;7.60;42.10;;;;;;10260968;28;20243;-71
2023/11/22 11:05:59;;;;;;;4.00;3.70;;;7.70;42.40;;;;;;10260834;28;20223;-71
2023/11/22 11:11:03;;;;;;;4.10;3.80;;;7.70;41.80;;;;;;10261250;28;20228;-71
2023/11/22 11:16:09;;;;;;;4.60;3.97;;;7.80;42.00;;;;;;10265588;28;20228;-72
2023/11/22 11:21:13;;;;;;;3.90;3.60;;;7.70;41.70;;;;;;10254972;28;20968;-72
2023/11/22 11:26:18;;;;;;;4.10;3.80;;;7.70;42.00;;;;;;10262299;28;20250;-72
2023/11/22 11:31:24;;;;;;;4.17;3.87;;;7.70;42.10;;;;;;10260601;28;20317;-71
2023/11/22 11:36:29;;;;;;;4.30;3.90;;;7.80;42.00;;;;;;10263495;28;20636;-72
2023/11/22 11:41:33;;;;;;;3.97;3.67;;;7.80;42.40;;;;;;10260900;28;20235;-72
2023/11/22 11:46:39;;;;;;;4.20;3.90;;;7.90;42.30;;;;;;10260142;28;20244;-72
2023/11/22 11:51:43;;;;;;;3.87;3.57;;;7.90;41.80;;;;;;10255597;28;20863;-73
2023/11/22 11:56:49;;;;;;;4.20;3.90;;;8.00;41.80;;;;;;10260355;28;20283;-72
2023/11/22 12:01:57;;;;;;;4.40;4.00;;;8.00;41.80;;;;;;10261263;28;20282;-72
2023/11/22 12:07:01;;;;;;;4.67;4.27;;;8.00;41.50;;;;;;10258635;28;20235;-72
2023/11/22 12:12:05;;;;;;;4.63;4.23;;;8.00;41.50;;;;;;10261308;28;20344;-72
2023/11/22 12:17:10;;;;;;;4.40;4.00;;;7.90;41.50;;;;;;10256625;28;20639;-72
2023/11/22 12:22:16;;;;;;;4.53;4.13;;;7.90;41.60;;;;;;10257329;28;20232;-72
2023/11/22 12:27:19;;;;;;;4.60;4.20;;;7.90;41.60;;;;;;10256945;28;20228;-72
2023/11/22 12:32:26;;;;;;;3.90;3.60;;;7.90;41.50;;;;;;10258998;28;20247;-72
2023/11/22 12:37:29;;;;;;;4.53;4.13;;;7.90;41.30;;;;;;10257039;28;20265;-72
2023/11/22 12:42:34;;;;;;;4.73;4.33;;;7.90;41.60;;;;;;10257655;28;20276;-72
2023/11/22 12:47:40;;;;;;;4.90;4.50;;;7.90;41.60;;;;;;10255502;28;20237;-72
2023/11/22 12:52:43;;;;;;;4.70;4.30;;;7.90;41.60;;;;;;10251781;28;20239;-71
2023/11/22 12:57:58;;;;;;;4.20;3.90;;;7.90;41.70;;;;;;10257582;28;20237;-71
2023/11/22 13:03:04;;;;;;;4.63;4.23;;;8.00;41.20;;;;;;10257495;28;20233;-71
2023/11/22 13:08:08;;;;;;;4.20;3.90;;;8.00;41.60;;;;;;10258342;28;21017;-71
2023/11/22 13:13:12;;;;;;;5.37;4.93;;;8.00;41.70;;;;;;10256906;28;20234;-71
2023/11/22 13:18:17;;;;;;;4.87;4.47;;;8.00;41.70;;;;;;10257757;28;20222;-71
2023/11/22 13:23:20;;;;;;;4.77;4.37;;;8.00;41.30;;;;;;10259569;28;20255;-71
2023/11/22 13:28:25;;;;;;;5.27;4.77;;;8.00;41.60;;;;;;10255163;28;20231;-71
2023/11/22 13:33:29;;;;;;;5.00;4.60;;;8.00;41.60;;;;;;10253483;28;20235;-73
2023/11/22 13:38:33;;;;;;;4.80;4.40;;;8.00;41.50;;;;;;10256915;28;20238;-71
2023/11/22 13:43:36;;;;;;;5.30;4.80;;;8.00;41.60;;;;;;10262777;28;20240;-70
2023/11/22 13:48:41;;;;;;;4.43;4.13;;;7.90;41.60;;;;;;10263768;28;20228;-70
2023/11/22 13:53:49;;;;;;;5.17;4.67;;;8.00;42.30;;;;;;10260056;28;20219;-71
2023/11/22 13:58:52;;;;;;;5.33;4.83;;;8.00;41.90;;;;;;10262769;28;20238;-70
2023/11/22 14:03:57;;;;;;;4.47;4.13;;;8.00;41.80;;;;;;10259845;28;20224;-71
2023/11/22 14:09:00;;;;;;;5.97;5.47;;;8.00;41.60;;;;;;10256789;28;20232;-70
2023/11/22 14:14:04;;;;;;;5.07;4.67;;;8.00;41.60;;;;;;10258766;28;20235;-71
2023/11/22 14:19:09;;;;;;;4.63;4.23;;;8.00;41.40;;;;;;10256352;28;20223;-71
2023/11/22 14:24:12;;;;;;;5.17;4.70;;;8.00;41.20;;;;;;10269924;28;20790;-71
2023/11/22 14:29:16;;;;;;;5.53;5.03;;;8.00;41.30;;;;;;10263110;28;20921;-71
2023/11/22 14:34:20;;;;;;;5.90;5.40;;;8.00;41.30;;;;;;10257127;28;20231;-74
2023/11/22 14:39:23;;;;;;;5.17;4.27;;;8.00;41.80;;;;;;10258809;28;20232;-71
2023/11/22 14:44:26;;;;;;;5.07;4.57;;;8.00;41.60;;;;;;10261163;28;20273;-72
2023/11/22 14:49:31;;;;;;;5.27;4.77;;;8.10;41.50;;;;;;10262403;28;20246;-71
2023/11/22 14:54:48;;;;;;;4.67;4.27;;;8.10;41.50;;;;;;10258118;28;21362;-71
2023/11/22 14:59:51;;;;;;;4.80;4.30;;;8.10;41.70;;;;;;10258940;28;20322;-71
2023/11/22 15:04:56;;;;;;;4.47;4.13;;;8.10;41.60;;;;;;10261521;28;20228;-71
2023/11/22 15:09:59;;;;;;;4.73;4.33;;;8.10;41.30;;;;;;10257544;28;20240;-71
2023/11/22 15:15:03;;;;;;;4.73;4.33;;;8.10;41.60;;;;;;10261871;28;20707;-71
2023/11/22 15:20:10;;;;;;;4.73;4.30;;;8.10;41.30;;;;;;10258149;28;20255;-71
2023/11/22 15:25:15;;;;;;;4.70;4.30;;;8.00;40.90;;;;;;10258575;28;20234;-71
2023/11/22 15:30:19;;;;;;;4.87;4.47;;;8.00;41.00;;;;;;10259351;28;20243;-72
2023/11/22 15:35:24;;;;;;;4.67;4.27;;;8.00;41.20;;;;;;10261452;28;20301;-71
2023/11/22 15:40:27;;;;;;;4.80;4.40;;;7.90;41.10;;;;;;10262053;28;20236;-72
2023/11/22 15:45:31;;;;;;;5.57;5.07;;;7.90;41.10;;;;;;10265134;28;21041;-72
2023/11/22 15:50:36;;;;;;;4.70;4.30;;;7.90;41.10;;;;;;10251920;28;20244;-73
2023/11/22 15:55:39;;;;;;;4.77;4.37;;;7.90;41.10;;;;;;10258842;28;20286;-73
2023/11/22 16:00:43;;;;;;;4.80;4.40;;;7.90;41.20;;;;;;10250042;28;20232;-71
2023/11/22 16:05:49;;;;;;;5.17;4.77;;;7.90;41.20;;;;;;10256588;28;20610;-71
2023/11/22 16:10:52;;;;;;;5.07;4.57;;;7.90;41.10;;;;;;10246824;28;20242;-72
2023/11/22 16:15:59;;;;;;;5.53;5.03;;;7.90;41.20;;;;;;10250840;28;20227;-70
2023/11/22 16:21:04;;;;;;;6.87;6.17;;;7.80;41.30;;;;;;10252015;28;20733;-72
2023/11/22 16:26:08;;;;;;;5.70;5.10;;;7.80;41.30;;;;;;10241315;28;20234;-74
2023/11/22 16:31:13;;;;;;;5.67;5.10;;;7.80;41.40;;;;;;10254477;28;20322;-73
2023/11/22 16:36:20;;;;;;;5.57;5.13;;;7.80;41.50;;;;;;10272302;28;20236;-73
2023/11/22 16:41:25;;;;;;;6.23;5.73;;;7.80;41.50;;;;;;10271549;28;20239;-74
2023/11/22 16:46:29;;;;;;;5.70;5.23;;;7.80;42.20;;;;;;10252327;28;20905;-73
2023/11/22 16:51:34;;;;;;;5.27;4.83;;;7.80;41.60;;;;;;10265047;28;20247;-73
2023/11/22 16:56:37;;;;;;;5.37;4.97;;;7.80;41.50;;;;;;10264156;28;20238;-73
2023/11/22 17:01:40;;;;;;;5.37;4.87;;;7.80;41.50;;;;;;10265722;28;20685;-73
2023/11/22 17:06:45;;;;;;;5.70;5.30;;;7.90;41.50;;;;;;10264182;28;20227;-73
2023/11/22 17:11:48;;;;;;;5.40;5.00;;;7.90;41.40;;;;;;10267701;28;20245;-72
2023/11/22 17:16:51;;;;;;;6.27;5.67;;;7.90;41.60;;;;;;10269108;28;20668;-72
2023/11/22 17:21:56;;;;;;;8.83;8.03;;;7.90;41.50;;;;;;10270521;28;20235;-72
2023/11/22 17:26:59;;;;;;;8.90;8.10;;;7.90;41.30;;;;;;10272981;28;20232;-72
2023/11/22 17:32:03;;;;;;;7.90;7.10;;;8.00;41.50;;;;;;10273025;28;20232;-72
2023/11/22 17:37:08;;;;;;;6.23;5.73;;;8.00;41.50;;;;;;10263789;28;20223;-72
2023/11/22 17:42:11;;;;;;;6.47;5.87;;;8.00;41.30;;;;;;10271645;28;20227;-72
2023/11/22 17:47:14;;;;;;;5.93;5.43;;;8.00;41.40;;;;;;10268541;28;20231;-72
2023/11/22 17:52:19;;;;;;;5.37;4.87;;;8.00;41.40;;;;;;10277757;28;20231;-72
2023/11/22 17:57:22;;;;;;;4.77;4.37;;;8.00;41.30;;;;;;10276327;28;20579;-72
2023/11/22 18:02:25;;;;;;;5.77;4.90;;;8.00;41.50;;;;;;10266081;28;20727;-72
2023/11/22 18:07:30;;;;;;;5.60;5.10;;;8.00;41.50;;;;;;10261543;28;20338;-73
2023/11/22 18:12:34;;;;;;;7.00;6.40;;;8.00;41.20;;;;;;10266111;28;20708;-73
2023/11/22 18:17:37;;;;;;;9.20;7.90;;;8.00;41.20;;;;;;10265846;28;20215;-73
2023/11/22 18:22:41;;;;;;;6.83;6.13;;;8.00;41.30;;;;;;10264832;28;20238;-73
2023/11/22 18:27:44;;;;;;;7.00;6.40;;;8.00;41.30;;;;;;10272257;28;20787;-73
2023/11/22 18:32:48;;;;;;;6.43;5.83;;;8.00;41.40;;;;;;10268945;28;20323;-73
2023/11/22 18:37:52;;;;;;;6.60;6.03;;;8.00;41.50;;;;;;10266946;28;20227;-73
2023/11/22 18:42:55;;;;;;;6.43;5.83;;;8.00;41.30;;;;;;10259821;28;20231;-73
2023/11/22 18:47:59;;;;;;;6.50;6.00;;;8.00;41.30;;;;;;10257486;28;20230;-72
2023/11/22 18:53:04;;;;;;;6.10;5.60;;;8.00;41.20;;;;;;10270794;28;20244;-72
2023/11/22 18:58:07;;;;;;;6.13;5.60;;;8.00;41.10;;;;;;10267642;28;20601;-72
2023/11/22 19:03:11;;;;;;;7.10;6.50;;;8.00;41.20;;;;;;10265875;28;20309;-73
2023/11/22 19:08:16;;;;;;;9.03;8.13;;;8.00;42.10;;;;;;10269848;28;20227;-73
2023/11/22 19:13:20;;;;;;;7.17;6.47;;;7.90;41.20;;;;;;10264050;28;20228;-73
2023/11/22 19:18:23;;;;;;;10.07;9.07;;;7.90;41.50;;;;;;10266681;28;20228;-73
2023/11/22 19:23:28;;;;;;;24.97;18.37;;;7.90;41.50;;;;;;10267390;28;20242;-73
2023/11/22 19:28:32;;;;;;;31.30;21.73;;;7.90;41.30;;;;;;10266013;28;20227;-73
2023/11/22 19:33:37;;;;;;;11.97;10.50;;;7.90;41.40;;;;;;10263915;28;20726;-73
2023/11/22 19:38:41;;;;;;;11.03;9.93;;;7.80;41.30;;;;;;10266640;28;20310;-73
2023/11/22 19:43:45;;;;;;;10.70;9.63;;;7.70;41.40;;;;;;10268126;28;20255;-73
2023/11/22 19:48:48;;;;;;;8.73;7.93;;;7.60;41.70;;;;;;10268805;28;20230;-73
2023/11/22 19:53:54;;;;;;;8.17;7.37;;;7.50;41.80;;;;;;10267756;28;20242;-72
2023/11/22 19:58:58;;;;;;;7.20;6.53;;;7.50;41.80;;;;;;10263580;28;20314;-72
2023/11/22 20:04:01;;;;;;;7.80;7.03;;;7.50;42.00;;;;;;10267352;28;20239;-72
2023/11/22 20:09:06;;;;;;;8.00;7.27;;;7.50;42.00;;;;;;10268072;28;20307;-72
2023/11/22 20:14:10;;;;;;;7.43;6.73;;;7.40;41.70;;;;;;10260591;28;20326;-72
2023/11/22 20:19:13;;;;;;;6.30;5.77;;;7.50;42.00;;;;;;10261422;28;20231;-73
2023/11/22 20:24:18;;;;;;;8.37;7.63;;;7.50;43.60;;;;;;10265501;28;20231;-73
2023/11/22 20:29:21;;;;;;;6.50;5.90;;;7.60;42.70;;;;;;10260917;28;20237;-73
2023/11/22 20:34:24;;;;;;;7.50;6.80;;;7.70;42.30;;;;;;10267708;28;21271;-73
2023/11/22 20:39:29;;;;;;;7.63;6.93;;;7.80;42.00;;;;;;10263931;28;20252;-73
2023/11/22 20:44:33;;;;;;;9.47;7.90;;;7.80;41.80;;;;;;10266481;28;20842;-73
2023/11/22 20:49:37;;;;;;;9.40;8.50;;;7.80;41.90;;;;;;10274722;28;20335;-73
2023/11/22 20:54:42;;;;;;;10.13;8.60;;;7.80;41.80;;;;;;10279952;28;20242;-73
2023/11/22 20:59:45;;;;;;;11.17;8.67;;;7.70;41.80;;;;;;10273278;28;20231;-73
2023/11/22 21:04:48;;;;;;;9.37;8.47;;;7.60;41.90;;;;;;10274615;28;20235;-73
2023/11/22 21:09:53;;;;;;;9.70;8.80;;;7.60;42.00;;;;;;10274367;28;20228;-73
2023/11/22 21:14:56;;;;;;;8.70;7.90;;;7.40;42.00;;;;;;10273966;28;20238;-73
2023/11/22 21:20:07;;;;;;;9.47;8.57;;;7.40;42.10;;;;;;10277907;28;20228;-73
2023/11/22 21:25:11;;;;;;;9.17;8.23;;;7.40;42.00;;;;;;10275597;28;20219;-73
2023/11/22 21:30:15;;;;;;;8.83;8.03;;;7.40;41.80;;;;;;10271729;28;20254;-73
2023/11/22 21:35:18;;;;;;;9.70;8.80;;;7.40;41.90;;;;;;10272726;28;20247;-73
2023/11/22 21:40:23;;;;;;;9.70;8.83;;;7.40;41.90;;;;;;10269514;28;20624;-73
2023/11/22 21:45:26;;;;;;;9.63;8.73;;;7.40;41.80;;;;;;10272617;28;20246;-73
2023/11/22 21:50:29;;;;;;;10.10;9.10;;;7.30;41.70;;;;;;10276171;28;20239;-73
2023/11/22 21:55:34;;;;;;;10.13;9.20;;;7.30;41.70;;;;;;10277301;28;20227;-73
2023/11/22 22:00:37;;;;;;;9.63;8.70;;;7.30;41.40;;;;;;10274549;28;20260;-73
2023/11/22 22:05:44;;;;;;;8.63;7.83;;;7.30;41.40;;;;;;10273363;28;20250;-73
2023/11/22 22:10:49;;;;;;;13.03;11.47;;;7.30;41.60;;;;;;10276548;28;20345;-73
2023/11/22 22:15:52;;;;;;;11.00;9.90;;;7.30;41.30;;;;;;10273257;28;20231;-74
2023/11/22 22:21:00;;;;;;;9.83;8.93;;;7.30;41.40;;;;;;10270688;28;20346;-73
2023/11/22 22:26:05;;;;;;;10.80;9.70;;;7.20;41.10;;;;;;10269778;28;20239;-74
2023/11/22 22:31:09;;;;;;;10.80;9.80;;;7.20;41.20;;;;;;10272738;28;20319;-73
2023/11/22 22:36:17;;;;;;;10.27;9.30;;;7.20;41.50;;;;;;10267539;28;20266;-73
2023/11/22 22:41:23;;;;;;;9.93;8.90;;;7.20;41.20;;;;;;10262636;28;20232;-74
2023/11/22 22:46:26;;;;;;;10.30;9.40;;;7.10;41.40;;;;;;10271848;28;20227;-74
2023/11/22 22:51:31;;;;;;;9.90;9.00;;;7.10;41.30;;;;;;10272188;28;20242;-74
2023/11/22 22:56:36;;;;;;;10.43;9.30;;;7.00;41.20;;;;;;10266111;28;20231;-74
2023/11/22 23:01:39;;;;;;;10.00;9.03;;;6.90;41.00;;;;;;10268523;28;20320;-74
2023/11/22 23:06:43;;;;;;;10.33;9.33;;;6.90;41.30;;;;;;10271749;28;20231;-74
2023/11/22 23:11:47;;;;;;;9.53;8.63;;;6.90;41.10;;;;;;10267007;28;20245;-74
2023/11/22 23:16:51;;;;;;;10.53;9.63;;;6.90;41.40;;;;;;10270480;28;20274;-73
2023/11/22 23:21:54;;;;;;;10.10;9.17;;;6.90;41.40;;;;;;10272909;28;20910;-74
2023/11/22 23:26:59;;;;;;;9.80;8.97;;;6.90;41.10;;;;;;10270609;28;20226;-74
2023/11/22 23:32:05;;;;;;;10.80;9.70;;;6.90;41.10;;;;;;10269748;28;20319;-73
2023/11/22 23:37:08;;;;;;;10.33;9.33;;;6.90;41.10;;;;;;10262261;28;20734;-73
2023/11/22 23:42:13;;;;;;;9.93;9.03;;;6.90;41.30;;;;;;10268830;28;20228;-73
2023/11/22 23:47:18;;;;;;;10.20;9.23;;;6.90;41.20;;;;;;10269089;28;20228;-73
2023/11/22 23:52:21;;;;;;;10.50;9.50;;;6.90;41.10;;;;;;10263953;28;20319;-73
2023/11/22 23:57:26;;;;;;;10.40;9.40;;;6.80;41.10;;;;;;10264917;28;20279;-73
